Time;durP1;ratioP1;P1;durP2;ratioP2;P2;SDS_P1;SDS_P2;PMS_P1;PMS_P2;Temp;Humidity;BMP_temperature;BMP_pressure;BME280_temperature;BME280_humidity;BME280_pressure;Samples;Min_cycle;Max_cycle;Signal;HPM_P1;HPM_P2
2022/03/19 00:00:36;;;;;;;7.90;7.50;;;;;;;-4.00;63.54;103426.16;5027224;28;20103;-63
2022/03/19 00:03:02;;;;;;;7.47;7.07;;;;;;;-3.97;63.43;103427.88;5032094;28;20112;-63
2022/03/19 00:05:28;;;;;;;7.65;7.25;;;;;;;-3.97;63.67;103417.50;5031856;28;20040;-62
2022/03/19 00:07:54;;;;;;;7.63;7.22;;;;;;;-4.05;64.04;103427.91;5032066;28;20021;-63
2022/03/19 00:10:22;;;;;;;8.23;7.72;;;;;;;-4.09;63.81;103428.81;5042367;28;20033;-63
2022/03/19 00:12:48;;;;;;;7.70;7.30;;;;;;;-4.21;64.81;103428.88;5015034;28;20106;-63
2022/03/19 00:15:14;;;;;;;8.15;7.65;;;;;;;-4.21;64.00;103426.28;5024004;28;20128;-63
2022/03/19 00:17:39;;;;;;;8.55;8.05;;;;;;;-4.29;64.94;103428.94;5031755;28;20025;-63
2022/03/19 00:20:06;;;;;;;7.88;7.45;;;;;;;-4.31;65.30;103430.69;5031790;28;20177;-63
2022/03/19 00:22:31;;;;;;;8.45;7.95;;;;;;;-4.50;65.41;103418.66;5030518;28;20030;-62
2022/03/19 00:24:58;;;;;;;8.30;7.80;;;;;;;-4.53;65.44;103427.31;5028941;28;20049;-63
2022/03/19 00:27:25;;;;;;;7.70;7.30;;;;;;;-4.57;65.29;103420.41;5012050;28;20029;-63
2022/03/19 00:29:51;;;;;;;7.78;7.38;;;;;;;-4.58;65.11;103434.25;5011918;28;20041;-63
2022/03/19 00:32:16;;;;;;;7.95;7.47;;;;;;;-4.69;65.52;103424.81;5012029;28;20068;-63
2022/03/19 00:34:42;;;;;;;7.80;7.40;;;;;;;-4.68;65.37;103423.94;5039856;28;20034;-63
2022/03/19 00:37:07;;;;;;;8.18;7.68;;;;;;;-4.74;65.77;103428.25;5011778;28;20042;-63
2022/03/19 00:39:33;;;;;;;7.72;7.32;;;;;;;-4.83;66.38;103422.25;5019153;28;20029;-63
2022/03/19 00:41:58;;;;;;;8.07;7.57;;;;;;;-4.81;66.02;103421.38;5031469;28;20029;-62
2022/03/19 00:44:24;;;;;;;7.63;7.22;;;;;;;-4.81;65.90;103421.38;5031451;28;20074;-63
2022/03/19 00:46:49;;;;;;;7.85;7.43;;;;;;;-4.94;66.10;103424.00;5031413;28;20377;-62
2022/03/19 00:49:16;;;;;;;7.55;7.15;;;;;;;-4.96;66.20;103415.41;5031792;28;20083;-64
2022/03/19 00:51:42;;;;;;;8.75;8.25;;;;;;;-4.93;66.44;103420.56;5031473;28;20021;-63
2022/03/19 00:54:10;;;;;;;8.88;8.30;;;;;;;-4.96;66.87;103426.59;5024861;28;20026;-63
2022/03/19 00:56:36;;;;;;;8.20;7.70;;;;;;;-5.01;67.27;103423.16;5037637;28;20056;-62
2022/03/19 00:59:02;;;;;;;7.97;7.50;;;;;;;-5.13;67.27;103425.78;5031417;28;20066;-63
2022/03/19 01:01:28;;;;;;;7.57;7.18;;;;;;;-5.17;66.89;103405.94;5031408;28;20033;-62
2022/03/19 01:03:54;;;;;;;7.85;7.45;;;;;;;-5.06;66.16;103428.38;5031745;28;20032;-63
2022/03/19 01:06:19;;;;;;;8.48;7.97;;;;;;;-5.12;66.71;103425.78;5031461;28;20389;-63
2022/03/19 01:08:45;;;;;;;8.05;7.63;;;;;;;-5.18;66.86;103432.69;5015253;28;20030;-62
2022/03/19 01:11:11;;;;;;;7.80;7.40;;;;;;;-5.25;66.71;103426.66;5047013;28;20028;-62
2022/03/19 01:13:36;;;;;;;8.10;7.70;;;;;;;-5.25;66.87;103429.25;5055416;28;20028;-62
2022/03/19 01:16:02;;;;;;;7.20;6.90;;;;;;;-5.23;67.53;103424.06;5036692;28;20029;-63
2022/03/19 01:18:29;;;;;;;7.78;7.38;;;;;;;-5.30;67.59;103424.06;5035314;28;20060;-63
2022/03/19 01:20:55;;;;;;;8.18;7.78;;;;;;;-5.42;67.37;103411.16;5035122;28;20053;-62
2022/03/19 01:23:21;;;;;;;8.18;7.78;;;;;;;-5.36;67.54;103415.44;5035121;28;20092;-62
2022/03/19 01:25:46;;;;;;;8.15;7.75;;;;;;;-5.42;67.32;103425.84;5035321;28;20440;-63
2022/03/19 01:28:12;;;;;;;8.27;7.88;;;;;;;-5.45;67.52;103424.09;5035040;28;20056;-63
2022/03/19 01:30:37;;;;;;;8.50;8.00;;;;;;;-5.49;67.32;103421.53;5033834;28;20108;-63
2022/03/19 01:33:03;;;;;;;9.27;8.75;;;;;;;-5.68;67.27;103395.66;5034242;28;20113;-62
2022/03/19 01:35:28;;;;;;;8.25;7.85;;;;;;;-5.59;67.64;103413.75;5030317;28;20049;-62
2022/03/19 01:37:54;;;;;;;8.45;7.95;;;;;;;-5.69;67.73;103396.53;5015124;28;20033;-63
2022/03/19 01:40:20;;;;;;;8.50;8.00;;;;;;;-5.61;67.52;103420.66;5014986;28;20026;-62
2022/03/19 01:42:51;;;;;;;8.23;7.80;;;;;;;-5.67;68.24;103418.06;5030419;28;20029;-63
2022/03/19 01:45:19;;;;;;;7.75;7.35;;;;;;;-5.80;68.51;103413.78;5034967;28;20094;-62
2022/03/19 01:47:47;;;;;;;8.00;7.60;;;;;;;-5.83;68.61;103421.50;5034994;28;20022;-62
2022/03/19 01:50:13;;;;;;;8.30;7.82;;;;;;;-5.97;68.69;103413.75;5024551;28;20097;-63
2022/03/19 01:52:40;;;;;;;7.80;7.40;;;;;;;-6.04;68.53;103406.00;5026649;28;20041;-62
2022/03/19 01:55:07;;;;;;;8.18;7.75;;;;;;;-5.99;68.91;103409.47;5033335;28;20420;-61
2022/03/19 01:57:38;;;;;;;8.30;7.90;;;;;;;-6.06;68.62;103405.16;5034460;28;20341;-62
2022/03/19 02:00:06;;;;;;;8.30;7.90;;;;;;;-6.18;68.92;103400.81;5034683;28;20025;-63
2022/03/19 02:02:32;;;;;;;8.30;7.90;;;;;;;-6.12;69.19;103411.16;5034625;28;20129;-63
2022/03/19 02:04:59;;;;;;;8.85;8.35;;;;;;;-6.03;69.22;103406.00;5016924;28;20463;-62
2022/03/19 02:07:25;;;;;;;8.45;8.05;;;;;;;-6.04;68.86;103409.44;5034601;28;20030;-62
2022/03/19 02:09:50;;;;;;;8.93;8.45;;;;;;;-6.16;68.82;103404.28;5041163;28;20017;-62
2022/03/19 02:12:16;;;;;;;9.25;8.75;;;;;;;-6.10;68.98;103417.19;5054227;28;20100;-63
2022/03/19 02:14:42;;;;;;;8.93;8.43;;;;;;;-6.19;69.30;103414.59;5046406;28;20040;-63
2022/03/19 02:17:09;;;;;;;9.02;8.52;;;;;;;-6.17;69.77;103415.44;5034039;28;20033;-62
2022/03/19 02:19:46;;;;;;;8.40;8.00;;;;;;;-6.11;69.47;103415.47;5014244;28;20050;-62
2022/03/19 02:22:12;;;;;;;8.82;8.32;;;;;;;-6.19;69.37;103414.59;5014287;28;20500;-63
2022/03/19 02:27:22;;;;;;;8.57;8.18;;;;;;;-6.17;69.92;103418.03;5014606;28;20064;-63
2022/03/19 02:29:47;;;;;;;8.90;8.40;;;;;;;-6.15;70.05;103427.53;5014859;28;20437;-62
2022/03/19 02:32:13;;;;;;;8.95;8.45;;;;;;;-6.21;70.29;103426.66;5014814;28;20112;-63
2022/03/19 02:34:38;;;;;;;8.63;8.13;;;;;;;-6.28;70.26;103422.31;5029828;28;20116;-62
2022/03/19 02:37:03;;;;;;;8.27;7.88;;;;;;;-6.38;71.22;103425.75;5034512;28;20036;-62
2022/03/19 02:39:33;;;;;;;8.48;8.07;;;;;;;-6.38;71.65;103423.16;5034189;28;20108;-63
2022/03/19 02:42:04;;;;;;;9.80;9.20;;;;;;;-6.45;71.95;103423.13;5033542;28;20029;-62
2022/03/19 02:44:31;;;;;;;8.88;8.38;;;;;;;-6.56;72.37;103432.56;5033328;28;20048;-62
2022/03/19 02:47:07;;;;;;;8.88;8.40;;;;;;;-6.61;72.49;103415.31;5019712;28;20018;-62
2022/03/19 02:49:33;;;;;;;9.52;9.02;;;;;;;-6.60;72.28;103428.25;5030912;28;20017;-62
2022/03/19 02:51:59;;;;;;;8.70;8.30;;;;;;;-6.68;72.90;103429.94;5034006;28;20090;-62
2022/03/19 02:54:27;;;;;;;9.27;8.77;;;;;;;-6.70;72.97;103431.63;5038302;28;20028;-62
2022/03/19 02:56:53;;;;;;;9.63;9.13;;;;;;;-6.68;73.30;103435.09;5052260;28;20032;-62
2022/03/19 02:59:27;;;;;;;9.25;8.75;;;;;;;-6.71;73.65;103441.09;5052682;28;20052;-63
2022/03/19 03:01:58;;;;;;;;;;;;;;;-6.73;73.44;103440.22;5014143;28;20083;-62
2022/03/19 03:04:23;;;;;;;9.85;9.35;;;;;;;-6.78;73.60;103434.19;5013677;28;20284;-62
2022/03/19 03:06:52;;;;;;;10.15;9.57;;;;;;;-6.82;73.47;103440.19;5047610;28;20026;-62
2022/03/19 03:09:23;;;;;;;10.25;9.65;;;;;;;-6.69;73.69;103448.84;5035130;28;20033;-62
2022/03/19 03:11:49;;;;;;;9.80;9.30;;;;;;;-6.73;73.65;103447.13;5053205;28;20130;-63
2022/03/19 03:14:15;;;;;;;9.98;9.48;;;;;;;-6.84;73.73;103441.88;5041926;28;20033;-62
2022/03/19 03:16:41;;;;;;;10.32;9.77;;;;;;;-6.78;73.70;103446.22;5033355;28;20096;-63
2022/03/19 03:19:10;;;;;;;9.15;8.65;;;;;;;-6.77;74.38;103450.53;5033167;28;20025;-62
2022/03/19 03:21:39;;;;;;;9.57;9.07;;;;;;;-6.85;74.44;103440.16;5033123;28;20041;-61
2022/03/19 03:24:06;;;;;;;9.10;8.68;;;;;;;-6.77;73.80;103455.69;5033424;28;20029;-62
2022/03/19 03:26:31;;;;;;;9.02;8.63;;;;;;;-6.82;74.18;103447.94;5033001;28;20029;-63
2022/03/19 03:28:58;;;;;;;9.30;8.80;;;;;;;-6.78;74.28;103453.97;5020331;28;20053;-62
2022/03/19 03:31:25;;;;;;;8.98;8.52;;;;;;;-6.77;74.70;103458.25;5013238;28;20022;-62
2022/03/19 03:33:51;;;;;;;9.60;9.10;;;;;;;-6.81;74.85;103459.13;5022627;28;20034;-62
2022/03/19 03:36:17;;;;;;;9.27;8.77;;;;;;;-6.81;75.06;103457.41;5032837;28;20060;-62
2022/03/19 03:38:42;;;;;;;9.15;8.65;;;;;;;-6.84;75.14;103456.50;5032750;28;20033;-62
2022/03/19 03:41:08;;;;;;;9.38;8.88;;;;;;;-6.88;75.81;103459.94;5032654;28;20416;-62
2022/03/19 03:43:34;;;;;;;8.80;8.40;;;;;;;-6.90;75.68;103459.03;5015788;28;20025;-63
2022/03/19 03:46:00;;;;;;;9.68;9.18;;;;;;;-6.84;76.24;103461.66;5031508;28;20033;-63
2022/03/19 03:48:26;;;;;;;9.50;9.00;;;;;;;-6.86;76.54;103458.22;5032606;28;20072;-63
2022/03/19 03:50:54;;;;;;;9.43;8.93;;;;;;;-6.85;76.13;103460.81;5032555;28;20504;-62
2022/03/19 03:53:22;;;;;;;9.40;8.90;;;;;;;-6.85;76.05;103462.53;5032517;28;20397;-63
2022/03/19 03:55:48;;;;;;;9.57;9.05;;;;;;;-6.87;76.63;103466.81;5044248;28;20455;-62
2022/03/19 03:58:14;;;;;;;9.45;8.95;;;;;;;-6.87;76.88;103461.66;5012593;28;20080;-62
2022/03/19 04:00:40;;;;;;;9.82;9.32;;;;;;;-6.91;77.09;103468.50;5012587;28;20052;-62
2022/03/19 04:03:06;;;;;;;9.65;9.10;;;;;;;-6.91;77.21;103473.66;5012584;28;20481;-62
2022/03/19 04:05:33;;;;;;;9.45;8.95;;;;;;;-6.91;77.07;103477.97;5020753;28;20025;-62
2022/03/19 04:07:59;;;;;;;9.35;8.85;;;;;;;-6.89;76.85;103476.28;5032301;28;20392;-62
2022/03/19 04:10:25;;;;;;;8.88;8.48;;;;;;;-6.82;76.42;103483.22;5029884;28;20051;-63
2022/03/19 04:12:50;;;;;;;9.10;8.60;;;;;;;-6.74;76.82;103468.63;5012497;28;20109;-63
2022/03/19 04:15:18;;;;;;;8.77;8.38;;;;;;;-6.82;76.53;103467.72;5024751;28;20374;-62
2022/03/19 04:17:44;;;;;;;8.93;8.52;;;;;;;-6.75;76.33;103469.47;5032036;28;20025;-62
2022/03/19 04:20:11;;;;;;;9.52;9.02;;;;;;;-6.54;75.62;103473.88;5031884;28;20091;-62
2022/03/19 04:22:39;;;;;;;8.80;8.35;;;;;;;-6.25;74.31;103480.00;5032063;28;20037;-62
2022/03/19 04:25:11;;;;;;;9.23;8.73;;;;;;;-5.80;72.96;103485.25;5020368;28;20132;-62
2022/03/19 04:27:37;;;;;;;8.23;7.82;;;;;;;-5.54;71.27;103485.31;5012646;28;20037;-63
2022/03/19 04:30:03;;;;;;;8.38;7.97;;;;;;;-5.29;70.99;103489.63;5012354;28;20038;-63
2022/03/19 04:32:29;;;;;;;7.53;7.13;;;;;;;-4.99;69.83;103483.59;5025508;28;20029;-63
2022/03/19 04:34:54;;;;;;;7.93;7.53;;;;;;;-4.63;68.57;103494.69;5031165;28;20510;-63
2022/03/19 04:37:20;;;;;;;7.10;6.70;;;;;;;-4.42;67.54;103497.22;5031954;28;20500;-66
2022/03/19 04:39:45;;;;;;;7.45;7.05;;;;;;;-3.97;66.16;103501.31;5015487;28;20389;-63
2022/03/19 04:42:11;;;;;;;6.57;6.25;;;;;;;-3.52;64.46;103503.66;5045195;28;20025;-63
2022/03/19 04:44:36;;;;;;;7.57;7.15;;;;;;;-3.26;63.98;103500.84;5030165;28;20124;-63
2022/03/19 04:47:02;;;;;;;6.63;6.32;;;;;;;-3.01;62.25;103498.88;5040584;28;20032;-63
2022/03/19 04:49:28;;;;;;;6.07;5.75;;;;;;;-3.06;61.71;103486.81;5051595;28;20555;-63
2022/03/19 04:51:53;;;;;;;6.28;5.97;;;;;;;-2.22;60.20;103506.69;5048626;28;20025;-63
2022/03/19 04:54:20;;;;;;;6.28;5.97;;;;;;;-2.03;58.53;103499.50;5019830;28;20032;-63
2022/03/19 04:56:46;;;;;;;6.25;5.95;;;;;;;-0.94;55.40;103506.47;5051786;28;20373;-63
2022/03/19 04:59:15;;;;;;;5.95;5.65;;;;;;;-0.31;52.38;103506.13;5051507;28;20060;-63
2022/03/19 05:01:40;;;;;;;6.22;5.93;;;;;;;1.66;46.24;103505.66;5050206;28;20029;-62
2022/03/19 05:04:06;;;;;;;6.32;6.03;;;;;;;2.23;44.49;103502.19;5051464;28;20021;-64
2022/03/19 05:06:32;;;;;;;6.60;6.30;;;;;;;3.96;40.96;103520.66;5029248;28;20034;-64
2022/03/19 05:11:41;;;;;;;6.30;6.00;;;;;;;5.82;37.22;103515.47;5012138;28;20116;-63
2022/03/19 05:14:07;;;;;;;6.55;6.25;;;;;;;5.54;36.92;103521.13;5014547;28;20042;-63
2022/03/19 05:16:33;;;;;;;6.43;6.13;;;;;;;6.69;35.51;103523.66;5031376;28;20026;-63
2022/03/19 05:18:58;;;;;;;6.40;6.10;;;;;;;6.35;35.38;103532.34;5031372;28;20026;-63
2022/03/19 05:21:24;;;;;;;6.90;6.60;;;;;;;6.93;34.75;103532.97;5019097;28;20030;-63
2022/03/19 05:23:49;;;;;;;6.72;6.43;;;;;;;7.97;32.88;103540.72;5011387;28;20037;-63
2022/03/19 05:26:15;;;;;;;7.20;6.90;;;;;;;8.02;33.04;103541.31;5011716;28;20026;-63
2022/03/19 05:28:40;;;;;;;7.30;7.00;;;;;;;8.40;32.35;103543.66;5024053;28;20510;-64
2022/03/19 05:31:08;;;;;;;6.45;6.15;;;;;;;9.08;31.03;103552.03;5029865;28;20024;-63
2022/03/19 05:36:24;;;;;;;7.78;7.40;;;;;;;9.39;30.06;103547.53;5010948;28;20034;-63
2022/03/19 05:38:50;;;;;;;7.20;6.90;;;;;;;10.71;28.44;103553.34;5030845;28;20018;-64
2022/03/19 05:41:16;;;;;;;7.78;7.43;;;;;;;10.68;27.43;103558.84;5030513;28;20033;-64
2022/03/19 05:43:43;;;;;;;7.32;7.03;;;;;;;10.63;27.35;103559.16;5030542;28;20040;-65
2022/03/19 05:46:08;;;;;;;7.13;6.82;;;;;;;11.93;26.54;103558.25;5029495;28;20116;-65
2022/03/19 05:48:34;;;;;;;7.72;7.43;;;;;;;10.74;27.19;103555.81;5026416;28;20104;-64
2022/03/19 05:51:01;;;;;;;7.53;7.22;;;;;;;11.47;26.08;103565.91;5009877;28;20124;-64
2022/03/19 05:53:27;;;;;;;7.72;7.43;;;;;;;12.01;25.30;103560.34;5011013;28;20033;-64
2022/03/19 05:55:53;;;;;;;7.13;6.82;;;;;;;11.40;26.67;103561.97;5044977;28;20072;-64
2022/03/19 05:58:18;;;;;;;7.10;6.80;;;;;;;11.17;27.03;103567.06;5051796;28;20072;-63
2022/03/19 06:00:44;;;;;;;7.40;7.10;;;;;;;12.45;24.85;103570.44;5054778;28;20028;-63
2022/03/19 06:03:09;;;;;;;7.57;7.28;;;;;;;13.71;23.42;103564.41;5037190;28;20029;-63
2022/03/19 06:05:35;;;;;;;7.35;7.05;;;;;;;13.07;24.04;103564.03;5038145;28;20431;-64
2022/03/19 06:08:01;;;;;;;7.60;7.30;;;;;;;13.40;23.32;103556.13;5034505;28;20031;-65
2022/03/19 06:10:28;;;;;;;7.50;7.20;;;;;;;13.99;22.97;103565.72;5045473;28;20104;-64
2022/03/19 06:12:53;;;;;;;7.70;7.40;;;;;;;13.91;22.65;103568.16;5053911;28;20021;-64
2022/03/19 06:15:19;;;;;;;7.72;7.43;;;;;;;13.07;23.78;103561.34;5041160;28;20492;-64
2022/03/19 06:17:44;;;;;;;7.60;7.30;;;;;;;13.93;22.73;103567.06;5021187;28;20443;-64
2022/03/19 06:20:10;;;;;;;8.20;7.80;;;;;;;13.89;22.78;103570.97;5013808;28;20053;-64
2022/03/19 06:22:40;;;;;;;7.88;7.57;;;;;;;13.26;23.35;103573.19;5013737;28;20030;-64
2022/03/19 06:25:05;;;;;;;7.45;7.15;;;;;;;14.93;22.35;103576.66;5028591;28;20029;-64
2022/03/19 06:27:31;;;;;;;7.68;7.38;;;;;;;13.55;22.64;103568.28;5034124;28;20021;-63
2022/03/19 06:29:56;;;;;;;7.47;7.18;;;;;;;15.54;21.24;103573.25;5033831;28;20033;-64
2022/03/19 06:32:23;;;;;;;7.90;7.60;;;;;;;15.00;21.56;103578.84;5016220;28;20104;-64
2022/03/19 06:34:49;;;;;;;8.10;7.80;;;;;;;13.63;23.10;103580.16;5032382;28;20496;-64
2022/03/19 06:37:20;;;;;;;7.55;7.25;;;;;;;14.85;21.65;103580.97;5033912;28;20130;-65
2022/03/19 06:39:55;;;;;;;7.85;7.55;;;;;;;14.90;21.67;103578.72;5033449;28;20018;-65
2022/03/19 06:42:21;;;;;;;7.90;7.60;;;;;;;14.13;21.88;103583.31;5033396;28;20064;-65
2022/03/19 06:44:47;;;;;;;7.68;7.38;;;;;;;14.28;22.32;103577.59;5029253;28;20041;-64
2022/03/19 06:47:13;;;;;;;8.32;7.93;;;;;;;15.43;21.39;103578.69;5013304;28;20018;-65
2022/03/19 06:49:38;;;;;;;7.63;7.32;;;;;;;14.61;22.16;103573.97;5013783;28;20030;-65
2022/03/19 06:52:04;;;;;;;7.55;7.25;;;;;;;13.94;23.18;103566.09;5029145;28;20057;-65
2022/03/19 06:54:30;;;;;;;8.05;7.75;;;;;;;13.88;22.71;103576.41;5024583;28;20029;-64
2022/03/19 06:56:56;;;;;;;7.90;7.60;;;;;;;14.76;21.55;103571.91;5053419;28;20078;-65
2022/03/19 06:59:21;;;;;;;7.47;7.18;;;;;;;14.47;21.89;103576.09;5036653;28;20057;-65
2022/03/19 07:01:47;;;;;;;8.00;7.70;;;;;;;14.14;22.45;103585.00;5013605;28;20022;-64
2022/03/19 07:04:12;;;;;;;7.50;7.20;;;;;;;14.43;22.54;103579.97;5013692;28;20111;-65
2022/03/19 07:06:38;;;;;;;7.40;7.10;;;;;;;16.22;20.97;103587.75;5030453;28;20136;-65
2022/03/19 07:09:04;;;;;;;7.40;7.10;;;;;;;15.50;21.80;103582.53;5032021;28;20022;-64
2022/03/19 07:11:31;;;;;;;7.82;7.53;;;;;;;15.03;22.22;103584.75;5013582;28;20448;-65
2022/03/19 07:13:57;;;;;;;7.60;7.30;;;;;;;14.72;22.09;103577.63;5014274;28;20026;-64
2022/03/19 07:16:23;;;;;;;7.70;7.40;;;;;;;15.25;21.65;103578.44;5032823;28;20029;-65
2022/03/19 07:18:49;;;;;;;7.60;7.30;;;;;;;16.16;21.00;103579.47;5032940;28;20038;-63
2022/03/19 07:21:15;;;;;;;7.70;7.40;;;;;;;15.13;21.73;103580.34;5032641;28;20042;-64
2022/03/19 07:23:42;;;;;;;7.72;7.43;;;;;;;16.71;20.64;103585.19;5032927;28;20036;-65
2022/03/19 07:26:07;;;;;;;7.63;7.32;;;;;;;16.67;20.46;103589.09;5032698;28;20033;-65
2022/03/19 07:28:33;;;;;;;7.47;7.18;;;;;;;14.61;21.92;103586.50;5015557;28;20397;-64
2022/03/19 07:30:59;;;;;;;7.57;7.28;;;;;;;16.78;20.50;103580.97;5031016;28;20022;-64
2022/03/19 07:33:26;;;;;;;7.40;7.10;;;;;;;17.12;20.29;103586.75;5031723;28;20029;-64
2022/03/19 07:35:51;;;;;;;7.50;7.20;;;;;;;16.83;19.91;103594.81;5041372;28;20032;-64
2022/03/19 07:38:17;;;;;;;7.40;7.10;;;;;;;13.39;22.37;103591.78;5052504;28;20029;-64
2022/03/19 07:43:26;;;;;;;7.75;7.45;;;;;;;14.94;22.18;103590.88;5032489;28;20512;-65
2022/03/19 07:45:52;;;;;;;7.90;7.60;;;;;;;9.65;27.89;103586.56;5032385;28;20041;-64
2022/03/19 07:48:18;;;;;;;7.70;7.40;;;;;;;4.28;35.25;103579.03;5032370;28;20098;-64
2022/03/19 07:50:44;;;;;;;8.23;7.82;;;;;;;11.04;26.24;103582.13;5032490;28;20026;-64
2022/03/19 07:53:11;;;;;;;8.60;8.20;;;;;;;6.73;32.78;103579.75;5030853;28;20039;-65
2022/03/19 07:55:37;;;;;;;8.20;7.80;;;;;;;5.14;35.34;103584.28;5030471;28;20112;-64
2022/03/19 07:58:03;;;;;;;8.13;7.72;;;;;;;12.08;25.35;103577.56;5044298;28;20512;-64
2022/03/19 08:00:29;;;;;;;7.63;7.32;;;;;;;10.55;25.65;103579.19;5012529;28;20156;-64
2022/03/19 08:02:55;;;;;;;8.25;7.85;;;;;;;8.46;31.46;103572.41;5012378;28;20104;-64
2022/03/19 08:05:21;;;;;;;8.43;8.02;;;;;;;11.61;25.78;103571.13;5018779;28;20167;-65
2022/03/19 08:07:47;;;;;;;8.25;7.85;;;;;;;6.60;33.80;103574.19;5031814;28;20442;-65
2022/03/19 08:10:13;;;;;;;8.05;7.65;;;;;;;4.11;37.02;103577.91;5038165;28;20100;-65
2022/03/19 08:12:40;;;;;;;7.80;7.47;;;;;;;4.26;37.57;103572.94;5051798;28;20037;-64
2022/03/19 08:15:08;;;;;;;8.50;8.10;;;;;;;6.78;33.96;103564.56;5040760;28;20030;-65
2022/03/19 08:17:38;;;;;;;7.53;7.22;;;;;;;10.36;27.90;103569.78;5031831;28;20029;-64
2022/03/19 08:20:08;;;;;;;7.60;7.30;;;;;;;4.45;36.43;103571.31;5031620;28;20029;-65
2022/03/19 08:22:34;;;;;;;7.38;7.07;;;;;;;5.85;34.58;103571.56;5031938;28;20045;-65
2022/03/19 08:25:01;;;;;;;7.38;7.07;;;;;;;7.55;32.72;103566.78;5031899;28;20374;-64
2022/03/19 08:27:27;;;;;;;8.07;7.68;;;;;;;3.85;37.98;103565.72;5031735;28;20029;-63
2022/03/19 08:29:53;;;;;;;7.43;7.13;;;;;;;7.74;31.25;103560.44;5030130;28;20037;-64
2022/03/19 08:32:20;;;;;;;7.85;7.45;;;;;;;4.29;36.73;103570.22;5031495;28;20551;-64
2022/03/19 08:34:46;;;;;;;8.15;7.75;;;;;;;10.21;29.82;103568.06;5031180;28;20033;-65
2022/03/19 08:37:12;;;;;;;7.43;7.13;;;;;;;6.23;33.17;103557.50;5027204;28;20029;-63
2022/03/19 08:42:22;;;;;;;8.00;7.60;;;;;;;8.47;28.39;103552.09;5024185;28;20087;-64
2022/03/19 08:44:48;;;;;;;7.72;7.38;;;;;;;9.30;30.32;103550.75;5030338;28;20424;-65
2022/03/19 08:47:13;;;;;;;7.47;7.15;;;;;;;12.66;25.08;103546.69;5031656;28;20457;-65
2022/03/19 08:49:39;;;;;;;8.20;7.80;;;;;;;12.63;24.44;103542.47;5031689;28;20053;-64
2022/03/19 08:52:04;;;;;;;7.47;7.18;;;;;;;12.26;25.52;103551.44;5031756;28;20025;-64
2022/03/19 08:54:30;;;;;;;8.13;7.72;;;;;;;6.41;34.01;103539.97;5036778;28;20025;-63
2022/03/19 08:56:55;;;;;;;8.20;7.80;;;;;;;6.07;31.55;103541.56;5029170;28;20374;-63
2022/03/19 08:59:21;;;;;;;7.65;7.32;;;;;;;9.62;29.06;103530.22;5011602;28;20033;-64
2022/03/19 09:01:50;;;;;;;9.57;9.07;;;;;;;6.72;32.02;103531.41;5011668;28;20471;-63
2022/03/19 09:04:16;;;;;;;7.93;7.53;;;;;;;4.00;35.53;103534.56;5010552;28;20046;-65
2022/03/19 09:06:43;;;;;;;8.20;7.80;;;;;;;5.93;33.22;103536.06;5029323;28;20033;-64
2022/03/19 09:09:09;;;;;;;7.95;7.55;;;;;;;4.87;34.04;103531.94;5030853;28;20033;-64
2022/03/19 09:11:36;;;;;;;8.10;7.70;;;;;;;6.02;32.36;103529.50;5051275;28;20075;-64
2022/03/19 09:14:03;;;;;;;8.45;8.05;;;;;;;5.14;34.17;103524.66;5034962;28;20083;-64
2022/03/19 09:16:31;;;;;;;9.00;8.50;;;;;;;6.10;32.16;103516.84;5013873;28;20497;-64
2022/03/19 09:18:57;;;;;;;7.80;7.40;;;;;;;3.86;36.93;103520.16;5011579;28;20037;-64
2022/03/19 09:21:23;;;;;;;7.82;7.43;;;;;;;5.14;34.41;103523.78;5012646;28;20074;-65
2022/03/19 09:23:49;;;;;;;7.80;7.40;;;;;;;3.79;36.78;103523.06;5031257;28;20029;-64
2022/03/19 09:26:16;;;;;;;7.93;7.53;;;;;;;4.74;34.71;103499.16;5031244;28;20036;-63
2022/03/19 09:28:42;;;;;;;7.65;7.25;;;;;;;6.38;33.51;103511.94;5031748;28;20022;-64
2022/03/19 09:31:07;;;;;;;8.90;8.40;;;;;;;4.85;34.75;103496.97;5031120;28;20031;-64
2022/03/19 09:33:33;;;;;;;8.10;7.70;;;;;;;9.05;29.67;103501.91;5030619;28;20033;-64
2022/03/19 09:36:01;;;;;;;9.02;8.52;;;;;;;4.30;35.08;103509.72;5014950;28;20025;-63
2022/03/19 09:38:29;;;;;;;8.02;7.63;;;;;;;4.11;36.63;103509.59;5015277;28;20535;-65
2022/03/19 09:40:55;;;;;;;7.90;7.50;;;;;;;5.96;34.50;103506.09;5031858;28;20017;-63
2022/03/19 09:43:25;;;;;;;8.00;7.60;;;;;;;7.10;31.82;103507.50;5033719;28;20068;-64
2022/03/19 09:45:53;;;;;;;8.32;7.90;;;;;;;4.08;35.98;103512.31;5033433;28;20057;-64
2022/03/19 09:48:19;;;;;;;9.23;8.70;;;;;;;6.82;31.92;103502.78;5034698;28;20071;-63
2022/03/19 09:50:49;;;;;;;6.85;6.55;;;;;;;3.31;37.63;103498.56;5035328;28;20017;-64
2022/03/19 09:53:19;;;;;;;7.93;7.53;;;;;;;6.09;32.80;103512.47;5034093;28;20092;-63
2022/03/19 09:55:46;;;;;;;7.90;7.50;;;;;;;4.37;34.57;103505.91;5025596;28;20050;-63
2022/03/19 09:58:13;;;;;;;7.63;7.22;;;;;;;4.84;34.67;103503.09;5015069;28;20045;-63
2022/03/19 10:00:39;;;;;;;7.95;7.55;;;;;;;4.15;35.93;103505.91;5014673;28;20211;-63
2022/03/19 10:03:09;;;;;;;7.43;7.03;;;;;;;3.61;36.98;103501.00;5014913;28;20104;-64
2022/03/19 10:08:39;;;;;;;7.57;7.18;;;;;;;3.83;36.94;103503.69;5034537;28;20068;-63
2022/03/19 10:11:11;;;;;;;7.78;7.38;;;;;;;5.14;34.82;103485.19;5032816;28;20076;-64
2022/03/19 10:13:37;;;;;;;7.78;7.38;;;;;;;5.02;34.43;103479.59;5014598;28;20034;-64
2022/03/19 10:16:04;;;;;;;7.88;7.47;;;;;;;3.78;36.95;103492.47;5032983;28;20040;-63
2022/03/19 10:18:31;;;;;;;7.85;7.45;;;;;;;4.92;35.03;103480.00;5033863;28;20377;-63
2022/03/19 10:21:01;;;;;;;7.50;7.10;;;;;;;5.20;34.91;103479.63;5034093;28;20025;-64
2022/03/19 10:23:39;;;;;;;7.78;7.38;;;;;;;5.49;34.42;103473.06;5032880;28;20029;-63
2022/03/19 10:26:05;;;;;;;7.75;7.35;;;;;;;5.49;34.28;103477.47;5054030;28;20445;-64
2022/03/19 10:28:33;;;;;;;8.38;7.88;;;;;;;6.20;33.35;103477.72;5052210;28;20029;-64
2022/03/19 10:31:00;;;;;;;7.78;7.38;;;;;;;5.26;34.55;103466.19;5033435;28;20072;-64
2022/03/19 10:33:28;;;;;;;7.70;7.30;;;;;;;5.74;33.36;103467.53;5019897;28;20108;-64
2022/03/19 10:36:08;;;;;;;7.35;6.95;;;;;;;3.59;36.80;103458.19;5033661;28;20025;-64
2022/03/19 10:38:44;;;;;;;8.00;7.60;;;;;;;3.38;37.41;103474.72;5033767;28;20022;-64
2022/03/19 10:41:12;;;;;;;8.10;7.70;;;;;;;3.17;37.72;103465.88;5031809;28;20033;-64
2022/03/19 10:43:38;;;;;;;8.90;8.40;;;;;;;4.36;35.39;103462.16;5033575;28;20025;-64
2022/03/19 10:46:04;;;;;;;8.27;7.78;;;;;;;5.34;34.08;103454.47;5033877;28;20087;-65
2022/03/19 10:48:30;;;;;;;7.03;6.72;;;;;;;5.88;33.44;103453.72;5033682;28;20435;-63
2022/03/19 10:50:58;;;;;;;6.68;6.38;;;;;;;5.87;34.17;103438.81;5014905;28;20026;-64
2022/03/19 10:53:26;;;;;;;6.75;6.45;;;;;;;5.86;33.27;103429.22;5013913;28;20405;-63
2022/03/19 10:55:53;;;;;;;6.95;6.65;;;;;;;4.82;35.29;103441.84;5047548;28;20045;-64
2022/03/19 10:58:19;;;;;;;7.43;7.03;;;;;;;3.44;36.12;103450.88;5052043;28;20508;-64
2022/03/19 11:00:50;;;;;;;8.00;7.60;;;;;;;3.18;37.55;103436.09;5053124;28;20056;-63
2022/03/19 11:03:21;;;;;;;7.80;7.40;;;;;;;3.72;36.36;103435.81;5053498;28;20104;-64
2022/03/19 11:05:52;;;;;;;10.27;9.63;;;;;;;5.13;34.36;103424.69;5042568;28;20060;-64
2022/03/19 11:08:19;;;;;;;7.28;6.88;;;;;;;4.55;35.13;103427.22;5026122;28;20029;-64
2022/03/19 11:10:48;;;;;;;7.50;7.10;;;;;;;5.22;35.03;103422.53;5040963;28;20024;-63
2022/03/19 11:13:20;;;;;;;7.00;6.70;;;;;;;5.33;35.07;103418.56;5053034;28;20025;-64
2022/03/19 11:15:50;;;;;;;9.50;8.90;;;;;;;5.64;34.79;103418.84;5035912;28;20022;-64
2022/03/19 11:18:22;;;;;;;7.70;7.30;;;;;;;5.47;34.38;103421.41;5031252;28;20068;-64
2022/03/19 11:20:49;;;;;;;8.68;8.18;;;;;;;5.56;34.11;103399.91;5041947;28;20082;-63
2022/03/19 11:23:24;;;;;;;8.57;8.07;;;;;;;3.86;35.12;103420.38;5052561;28;20028;-64
2022/03/19 11:25:52;;;;;;;;;;;;;;;4.39;35.38;103409.47;5052747;28;20610;-64
2022/03/19 11:28:19;;;;;;;8.50;8.00;;;;;;;5.03;33.94;103407.63;5019045;28;19929;-64
2022/03/19 11:31:07;;;;;;;9.32;8.73;;;;;;;4.71;34.52;103402.88;5012430;28;20018;-63
2022/03/19 11:33:38;;;;;;;8.13;7.72;;;;;;;3.98;36.62;103408.53;5019593;28;20147;-63
2022/03/19 11:36:04;;;;;;;7.13;6.82;;;;;;;5.17;34.71;103403.47;5032787;28;20029;-65
2022/03/19 11:38:32;;;;;;;8.82;8.32;;;;;;;5.05;34.89;103400.50;5032423;28;20437;-64
2022/03/19 11:40:58;;;;;;;7.32;6.93;;;;;;;4.27;35.18;103399.47;5023571;28;20030;-65
2022/03/19 11:43:27;;;;;;;7.03;6.72;;;;;;;3.41;35.88;103415.13;5032979;28;20021;-64